Time;durP1;ratioP1;P1;durP2;ratioP2;P2;SDS_P1;SDS_P2;PMS_P1;PMS_P2;Temp;Humidity;BMP_temperature;BMP_pressure;BME280_temperature;BME280_humidity;BME280_pressure;Samples;Min_cycle;Max_cycle;Signal;HPM_P1;HPM_P2
2022/01/30 07:00:37;;;;;;;;;;;;;;;;;;5652059;24;20007;-88
2022/01/30 07:03:04;;;;;;;;;;;;;;;;;;4869200;29;19929;-88
2022/01/30 07:05:30;;;;;;;;;;;;;;;;;;4871160;29;19927;-88
2022/01/30 07:07:57;;;;;;;;;;;;;;;;;;4870396;29;19976;-88
2022/01/30 07:10:24;;;;;;;;;;;;;;;;;;4870882;29;19924;-88
2022/01/30 07:12:50;;;;;;;;;;;;;;;;;;4871959;29;19924;-87
2022/01/30 07:15:17;;;;;;;;;;;;;;;;;;4867327;29;19935;-86
2022/01/30 07:17:43;;;;;;;;;;;;;;;;;;4861258;29;19928;-88
2022/01/30 07:20:10;;;;;;;;;;;;;;;;;;4839963;29;20357;-89
2022/01/30 07:22:37;;;;;;;;;;;;;;;;;;4844390;29;19977;-88
2022/01/30 07:25:06;;;;;;;;;;;;;;;;;;4860711;29;19924;-90
2022/01/30 07:27:34;;;;;;;;;;;;;;;;;;4860035;29;19928;-87
2022/01/30 07:30:00;;;;;;;;;;;;;;;;;;4862023;29;19924;-88
2022/01/30 07:32:27;;;;;;;;;;;;;;;;;;4859265;29;19953;-87
2022/01/30 07:35:04;;;;;;;;;;;;;;;;;;4867008;29;20487;-89
2022/01/30 07:37:33;;;;;;;;;;;;;;;;;;4857823;29;19935;-90
2022/01/30 07:40:01;;;;;;;;;;;;;;;;;;4854626;29;20465;-90
2022/01/30 07:42:28;;;;;;;;;;;;;;;;;;4855481;29;19980;-89
2022/01/30 07:44:54;;;;;;;;;;;;;;;;;;4838914;29;19928;-89
2022/01/30 07:47:22;;;;;;;;;;;;;;;;;;4839334;29;19989;-88
2022/01/30 07:49:51;;;;;;;;;;;;;;;;;;4839765;29;19923;-89
2022/01/30 07:52:19;;;;;;;;;;;;;;;;;;4855473;29;19993;-90
2022/01/30 07:54:46;;;;;;;;;;;;;;;;;;4855685;29;19979;-90
2022/01/30 07:57:12;;;;;;;;;;;;;;;;;;4830465;29;19924;-91
2022/01/30 07:59:39;;;;;;;;;;;;;;;;;;4856688;29;19964;-90
2022/01/30 08:02:05;;;;;;;;;;;;;;;;;;4853966;29;20029;-89
2022/01/30 08:04:33;;;;;;;;;;;;;;;;;;4839312;29;20007;-92
2022/01/30 08:07:00;;;;;;;;;;;;;;;;;;4855384;29;20389;-91
2022/01/30 08:09:27;;;;;;;;;;;;;;;;;;4830465;29;19924;-90
2022/01/30 08:11:54;;;;;;;;;;;;;;;;;;4856786;29;19924;-91
2022/01/30 08:14:21;;;;;;;;;;;;;;;;;;4838509;29;19975;-91
2022/01/30 08:16:48;;;;;;;;;;;;;;;;;;4855070;29;19924;-90
2022/01/30 08:19:16;;;;;;;;;;;;;;;;;;4854645;29;19924;-90
2022/01/30 08:21:42;;;;;;;;;;;;;;;;;;4854464;29;19932;-89
2022/01/30 08:24:09;;;;;;;;;;;;;;;;;;4855410;29;19952;-89
2022/01/30 08:26:35;;;;;;;;;;;;;;;;;;4839159;29;19924;-88
2022/01/30 08:29:02;;;;;;;;;;;;;;;;;;4854479;29;19928;-90
2022/01/30 08:31:29;;;;;;;;;;;;;;;;;;4853830;29;19928;-90
2022/01/30 08:33:55;;;;;;;;;;;;;;;;;;4838365;29;20270;-87
2022/01/30 08:36:22;;;;;;;;;;;;;;;;;;4836265;29;19984;-90
2022/01/30 08:38:48;;;;;;;;;;;;;;;;;;4852691;29;19980;-90
2022/01/30 08:41:15;;;;;;;;;;;;;;;;;;4838873;29;19931;-90
2022/01/30 08:43:42;;;;;;;;;;;;;;;;;;4850263;29;19959;-87
2022/01/30 08:46:08;;;;;;;;;;;;;;;;;;4847652;29;19924;-93
2022/01/30 08:48:35;;;;;;;;;;;;;;;;;;4858118;29;19932;-94
2022/01/30 08:51:02;;;;;;;;;;;;;;;;;;4855539;29;19972;-93
2022/01/30 08:53:29;;;;;;;;;;;;;;;;;;4842652;29;19996;-92
2022/01/30 08:55:55;;;;;;;;;;;;;;;;;;4840106;29;19927;-93
2022/01/30 08:58:22;;;;;;;;;;;;;;;;;;4840798;29;20478;-92
2022/01/30 09:00:48;;;;;;;;;;;;;;;;;;4843538;29;19928;-93
2022/01/30 09:03:15;;;;;;;;;;;;;;;;;;4845595;29;20308;-92
2022/01/30 09:05:42;;;;;;;;;;;;;;;;;;4840735;29;19928;-93
2022/01/30 09:08:08;;;;;;;;;;;;;;;;;;4860594;29;19931;-93
2022/01/30 09:10:36;;;;;;;;;;;;;;;;;;4861058;29;19924;-93
2022/01/30 09:13:03;;;;;;;;;;;;;;;;;;4844685;29;19947;-92
2022/01/30 09:15:30;;;;;;;;;;;;;;;;;;4839975;29;20385;-93
2022/01/30 09:17:58;;;;;;;;;;;;;;;;;;4858117;29;19924;-92
2022/01/30 09:20:24;;;;;;;;;;;;;;;;;;4839995;29;19925;-92
2022/01/30 09:22:53;;;;;;;;;;;;;;;;;;4859427;29;19934;-90
2022/01/30 09:25:20;;;;;;;;;;;;;;;;;;4856165;29;20358;-93
2022/01/30 09:27:46;;;;;;;;;;;;;;;;;;4844147;29;19924;-95
2022/01/30 09:30:13;;;;;;;;;;;;;;;;;;4858355;29;19980;-91
2022/01/30 09:32:40;;;;;;;;;;;;;;;;;;4844762;29;19924;-93
2022/01/30 09:35:07;;;;;;;;;;;;;;;;;;4860602;29;19934;-91
2022/01/30 09:37:33;;;;;;;;;;;;;;;;;;4844738;29;19957;-92
2022/01/30 09:40:01;;;;;;;;;;;;;;;;;;4855043;29;20492;-92
2022/01/30 09:42:28;;;;;;;;;;;;;;;;;;4840690;29;19928;-91
2022/01/30 09:45:00;;;;;;;;;;;;;;;;;;4856530;29;20563;-90
2022/01/30 09:47:27;;;;;;;;;;;;;;;;;;4858527;29;19928;-89
2022/01/30 09:49:55;;;;;;;;;;;;;;;;;;4856697;29;20432;-90
2022/01/30 09:52:21;;;;;;;;;;;;;;;;;;4839703;29;19954;-89
2022/01/30 09:54:48;;;;;;;;;;;;;;;;;;4857157;29;20241;-89
2022/01/30 09:57:15;;;;;;;;;;;;;;;;;;4837231;29;19928;-89
2022/01/30 09:59:42;;;;;;;;;;;;;;;;;;4837303;29;20347;-92
2022/01/30 10:02:09;;;;;;;;;;;;;;;;;;4846962;29;19932;-90
2022/01/30 10:04:37;;;;;;;;;;;;;;;;;;4837451;29;19931;-90
2022/01/30 10:07:11;;;;;;;;;;;;;;;;;;4855356;29;19935;-90
2022/01/30 10:09:44;;;;;;;;;;;;;;;;;;4855189;29;19924;-89
2022/01/30 10:12:31;;;;;;;;;;;;;;;;;;4849999;29;20479;-92
2022/01/30 10:15:07;;;;;;;;;;;;;;;;;;4834147;29;20404;-89
2022/01/30 10:17:36;;;;;;;;;;;;;;;;;;4854959;29;20381;-90
2022/01/30 10:20:25;;;;;;;;;;;;;;;;;;4841526;29;19955;-89
2022/01/30 10:22:56;;;;;;;;;;;;;;;;;;4853091;29;19935;-87
2022/01/30 10:25:28;;;;;;;;;;;;;;;;;;4850704;29;19931;-89
2022/01/30 10:28:24;;;;;;;;;;;;;;;;;;4833742;29;20009;-87
2022/01/30 10:30:52;;;;;;;;;;;;;;;;;;4830760;29;20441;-86
2022/01/30 10:33:20;;;;;;;;;;;;;;;;;;4852954;29;20007;-85
2022/01/30 10:35:50;;;;;;;;;;;;;;;;;;4835783;29;19967;-84
2022/01/30 10:38:24;;;;;;;;;;;;;;;;;;4849482;29;19932;-84
2022/01/30 10:40:52;;;;;;;;;;;;;;;;;;4834142;29;20008;-86
2022/01/30 10:43:18;;;;;;;;;;;;;;;;;;4829642;29;19976;-86
2022/01/30 10:45:45;;;;;;;;;;;;;;;;;;4815173;29;20024;-85
2022/01/30 10:48:11;;;;;;;;;;;;;;;;;;4836430;29;20075;-86
2022/01/30 10:50:40;;;;;;;;;;;;;;;;;;4854166;29;19928;-87
2022/01/30 10:53:06;;;;;;;;;;;;;;;;;;4835514;29;20257;-86
2022/01/30 10:55:37;;;;;;;;;;;;;;;;;;4836774;29;19928;-86
2022/01/30 10:58:05;;;;;;;;;;;;;;;;;;4832866;29;19936;-87
2022/01/30 11:00:40;;;;;;;;;;;;;;;;;;4849673;29;19988;-86
2022/01/30 11:03:07;;;;;;;;;;;;;;;;;;4851974;29;20230;-86
2022/01/30 11:05:53;;;;;;;;;;;;;;;;;;4854541;29;19934;-86
2022/01/30 11:08:24;;;;;;;;;;;;;;;;;;4853437;29;19988;-85
2022/01/30 11:11:02;;;;;;;;;;;;;;;;;;4854118;29;19924;-85
2022/01/30 11:13:32;;;;;;;;;;;;;;;;;;4833449;29;20039;-86
2022/01/30 11:16:55;;;;;;;;;;;;;;;;;;4854175;29;19932;-85
2022/01/30 11:18:50;;;;;;;;;;;;;;;;;;4853062;29;19931;-86
2022/01/30 11:21:21;;;;;;;;;;;;;;;;;;4852625;29;19934;-84
2022/01/30 11:23:49;;;;;;;;;;;;;;;;;;4837148;29;19928;-86
2022/01/30 11:26:17;;;;;;;;;;;;;;;;;;4853958;29;19996;-85
2022/01/30 11:28:48;;;;;;;;;;;;;;;;;;4853647;29;19928;-84
2022/01/30 11:31:16;;;;;;;;;;;;;;;;;;4851952;29;20474;-84
2022/01/30 11:33:43;;;;;;;;;;;;;;;;;;4854031;29;20004;-85
2022/01/30 11:36:10;;;;;;;;;;;;;;;;;;4852710;29;19932;-85
2022/01/30 11:38:37;;;;;;;;;;;;;;;;;;4854366;29;20457;-84
2022/01/30 11:41:12;;;;;;;;;;;;;;;;;;4853338;29;20694;-85
2022/01/30 11:43:39;;;;;;;;;;;;;;;;;;4854135;29;19932;-86
2022/01/30 11:46:11;;;;;;;;;;;;;;;;;;4834344;29;19927;-86
2022/01/30 11:48:37;;;;;;;;;;;;;;;;;;4853368;29;20313;-85
2022/01/30 11:51:04;;;;;;;;;;;;;;;;;;4853410;29;19928;-84
2022/01/30 11:53:31;;;;;;;;;;;;;;;;;;4837916;29;19995;-86
2022/01/30 11:56:00;;;;;;;;;;;;;;;;;;4835837;29;20513;-85
2022/01/30 11:58:29;;;;;;;;;;;;;;;;;;4835862;29;19934;-86
2022/01/30 12:00:59;;;;;;;;;;;;;;;;;;4853116;29;19935;-86
2022/01/30 12:03:27;;;;;;;;;;;;;;;;;;4852989;29;20394;-86
2022/01/30 12:05:54;;;;;;;;;;;;;;;;;;4853691;29;20007;-87
2022/01/30 12:08:40;;;;;;;;;;;;;;;;;;4835197;29;19935;-86
2022/01/30 12:11:26;;;;;;;;;;;;;;;;;;4852107;29;19928;-86
2022/01/30 12:13:52;;;;;;;;;;;;;;;;;;4833141;29;20032;-86
2022/01/30 12:16:38;;;;;;;;;;;;;;;;;;4832757;29;19955;-85
2022/01/30 12:19:04;;;;;;;;;;;;;;;;;;4846675;29;19932;-86
2022/01/30 12:21:32;;;;;;;;;;;;;;;;;;4853215;29;19924;-86
2022/01/30 12:24:18;;;;;;;;;;;;;;;;;;4837343;29;20350;-86
2022/01/30 12:26:52;;;;;;;;;;;;;;;;;;4833667;29;20361;-86
2022/01/30 12:29:38;;;;;;;;;;;;;;;;;;4836398;29;20397;-86
2022/01/30 12:32:20;;;;;;;;;;;;;;;;;;4852417;29;19932;-86
2022/01/30 12:34:47;;;;;;;;;;;;;;;;;;4837531;29;20006;-87
2022/01/30 12:37:19;;;;;;;;;;;;;;;;;;4839516;29;19928;-86
2022/01/30 12:39:45;;;;;;;;;;;;;;;;;;4856905;29;20429;-87
2022/01/30 12:42:16;;;;;;;;;;;;;;;;;;4856571;29;19928;-87
2022/01/30 12:44:43;;;;;;;;;;;;;;;;;;4857620;29;19928;-87
2022/01/30 12:47:10;;;;;;;;;;;;;;;;;;4849101;29;20786;-87
2022/01/30 12:49:43;;;;;;;;;;;;;;;;;;4851896;29;19963;-87
2022/01/30 12:52:20;;;;;;;;;;;;;;;;;;4855285;29;19992;-86
2022/01/30 12:54:50;;;;;;;;;;;;;;;;;;4856225;29;19924;-85
2022/01/30 12:57:22;;;;;;;;;;;;;;;;;;4855459;29;20393;-85
2022/01/30 12:59:53;;;;;;;;;;;;;;;;;;4854237;29;20018;-86
2022/01/30 13:02:20;;;;;;;;;;;;;;;;;;4854088;29;19928;-87
2022/01/30 13:04:57;;;;;;;;;;;;;;;;;;4854775;29;19931;-86
2022/01/30 13:07:24;;;;;;;;;;;;;;;;;;4837928;29;19939;-88
2022/01/30 13:10:06;;;;;;;;;;;;;;;;;;4856839;29;20445;-85
2022/01/30 13:12:33;;;;;;;;;;;;;;;;;;4838399;29;19986;-85
2022/01/30 13:15:07;;;;;;;;;;;;;;;;;;4852687;29;19936;-86
2022/01/30 13:17:34;;;;;;;;;;;;;;;;;;4837609;29;20372;-86
2022/01/30 13:20:01;;;;;;;;;;;;;;;;;;4853069;29;20350;-84
2022/01/30 13:22:34;;;;;;;;;;;;;;;;;;4853471;29;19928;-86
2022/01/30 13:25:02;;;;;;;;;;;;;;;;;;4852831;29;19935;-86
2022/01/30 13:27:29;;;;;;;;;;;;;;;;;;4852896;29;19932;-84
2022/01/30 13:29:56;;;;;;;;;;;;;;;;;;4856380;29;19959;-84
2022/01/30 13:32:25;;;;;;;;;;;;;;;;;;4853833;29;19934;-85
2022/01/30 13:34:58;;;;;;;;;;;;;;;;;;4852418;29;20007;-84
2022/01/30 13:37:25;;;;;;;;;;;;;;;;;;4850477;29;19935;-86
2022/01/30 13:47:50;;;;;;;;;;;;;;;;;;4851560;29;19928;-85
2022/01/30 13:50:18;;;;;;;;;;;;;;;;;;4853860;29;19927;-85
2022/01/30 13:52:44;;;;;;;;;;;;;;;;;;4854892;29;19928;-85
2022/01/30 13:55:11;;;;;;;;;;;;;;;;;;4854917;29;19935;-86
2022/01/30 13:57:39;;;;;;;;;;;;;;;;;;4854782;29;19936;-86
2022/01/30 14:00:13;;;;;;;;;;;;;;;;;;4860321;29;19924;-85
2022/01/30 14:02:58;;;;;;;;;;;;;;;;;;4844352;29;20017;-85
2022/01/30 14:05:30;;;;;;;;;;;;;;;;;;4851702;29;19923;-86
2022/01/30 14:07:58;;;;;;;;;;;;;;;;;;4854529;29;19928;-84
2022/01/30 14:10:29;;;;;;;;;;;;;;;;;;4853614;29;19951;-85
2022/01/30 14:13:02;;;;;;;;;;;;;;;;;;4837727;29;19932;-85
2022/01/30 14:15:29;;;;;;;;;;;;;;;;;;4853642;29;19931;-85
2022/01/30 14:18:05;;;;;;;;;;;;;;;;;;4853264;29;19928;-86
2022/01/30 14:20:31;;;;;;;;;;;;;;;;;;4853547;29;20313;-85
2022/01/30 14:23:04;;;;;;;;;;;;;;;;;;4835635;29;19951;-85
2022/01/30 14:25:31;;;;;;;;;;;;;;;;;;4852864;29;20582;-85
2022/01/30 14:27:58;;;;;;;;;;;;;;;;;;4851710;29;19927;-85
2022/01/30 14:30:37;;;;;;;;;;;;;;;;;;4852950;29;19959;-86
2022/01/30 14:33:04;;;;;;;;;;;;;;;;;;4852604;29;19932;-87
2022/01/30 14:35:36;;;;;;;;;;;;;;;;;;4854072;29;19931;-85
2022/01/30 14:38:04;;;;;;;;;;;;;;;;;;4852614;29;19928;-85
2022/01/30 14:40:31;;;;;;;;;;;;;;;;;;4851836;29;19939;-85
2022/01/30 14:42:59;;;;;;;;;;;;;;;;;;4850225;29;20445;-87
2022/01/30 14:45:26;;;;;;;;;;;;;;;;;;4852182;29;19939;-86
2022/01/30 14:47:53;;;;;;;;;;;;;;;;;;4852823;29;19928;-86
2022/01/30 14:50:20;;;;;;;;;;;;;;;;;;4853138;29;19928;-85
2022/01/30 14:52:47;;;;;;;;;;;;;;;;;;4836005;29;20305;-87
2022/01/30 14:55:14;;;;;;;;;;;;;;;;;;4854292;29;19928;-85
2022/01/30 14:57:41;;;;;;;;;;;;;;;;;;4852580;29;19932;-87
2022/01/30 15:00:08;;;;;;;;;;;;;;;;;;4852580;29;19928;-86
2022/01/30 15:02:34;;;;;;;;;;;;;;;;;;4853532;29;19983;-86
2022/01/30 15:05:01;;;;;;;;;;;;;;;;;;4845616;29;20366;-88
2022/01/30 15:07:30;;;;;;;;;;;;;;;;;;4833383;29;20342;-87
2022/01/30 15:09:56;;;;;;;;;;;;;;;;;;4852190;29;19924;-87
2022/01/30 15:12:23;;;;;;;;;;;;;;;;;;4851363;29;20228;-86
2022/01/30 15:14:52;;;;;;;;;;;;;;;;;;4835806;29;19924;-85
2022/01/30 15:17:30;;;;;;;;;;;;;;;;;;4850931;29;19924;-86
2022/01/30 15:20:08;;;;;;;;;;;;;;;;;;4838170;29;20282;-86
2022/01/30 15:22:35;;;;;;;;;;;;;;;;;;4852101;29;19997;-86
2022/01/30 15:25:01;;;;;;;;;;;;;;;;;;4851566;29;19928;-85
2022/01/30 15:27:28;;;;;;;;;;;;;;;;;;4834942;29;20389;-85
2022/01/30 15:29:55;;;;;;;;;;;;;;;;;;4853045;29;19927;-85
2022/01/30 15:32:22;;;;;;;;;;;;;;;;;;4838247;29;20082;-86
2022/01/30 15:34:48;;;;;;;;;;;;;;;;;;4854381;29;19924;-86
2022/01/30 15:37:15;;;;;;;;;;;;;;;;;;4851914;29;20462;-86
2022/01/30 15:39:42;;;;;;;;;;;;;;;;;;4851875;29;20001;-86
2022/01/30 15:42:09;;;;;;;;;;;;;;;;;;4851898;29;20892;-86
2022/01/30 15:50:06;;;;;;;;;;;;;;;;;;4851765;29;19985;-85
2022/01/30 15:52:33;;;;;;;;;;;;;;;;;;4852314;29;20014;-85
2022/01/30 15:55:00;;;;;;;;;;;;;;;;;;4853666;29;19936;-85
2022/01/30 15:57:27;;;;;;;;;;;;;;;;;;4836073;29;19928;-86
2022/01/30 15:59:55;;;;;;;;;;;;;;;;;;4837405;29;19932;-88
2022/01/30 16:02:21;;;;;;;;;;;;;;;;;;4854901;29;20013;-86
2022/01/30 16:04:53;;;;;;;;;;;;;;;;;;4854976;29;19924;-85
2022/01/30 16:07:20;;;;;;;;;;;;;;;;;;4853521;29;20022;-86
2022/01/30 16:09:49;;;;;;;;;;;;;;;;;;4855526;29;19935;-87
2022/01/30 16:17:58;;;;;;;;;;;;;;;;;;4817982;29;20007;-89
2022/01/30 16:20:25;;;;;;;;;;;;;;;;;;4818506;29;19974;-89
2022/01/30 16:22:52;;;;;;;;;;;;;;;;;;4821081;29;19924;-93
2022/01/30 16:25:21;;;;;;;;;;;;;;;;;;4806225;29;19928;-91
2022/01/30 16:27:48;;;;;;;;;;;;;;;;;;4819157;29;19925;-90
2022/01/30 16:30:17;;;;;;;;;;;;;;;;;;4820662;29;20390;-89
2022/01/30 16:32:44;;;;;;;;;;;;;;;;;;4820177;29;19928;-91
2022/01/30 16:35:11;;;;;;;;;;;;;;;;;;4821844;29;19978;-94
2022/01/30 16:37:39;;;;;;;;;;;;;;;;;;4822610;29;19928;-93
2022/01/30 16:40:06;;;;;;;;;;;;;;;;;;4819282;29;19940;-90
2022/01/30 16:42:34;;;;;;;;;;;;;;;;;;4822804;29;19929;-92
2022/01/30 16:45:17;;;;;;;;;;;;;;;;;;4817526;29;19925;-92
2022/01/30 16:48:15;;;;;;;;;;;;;;;;;;4800367;29;19963;-91
2022/01/30 16:50:42;;;;;;;;;;;;;;;;;;4819449;29;19931;-88
2022/01/30 16:53:12;;;;;;;;;;;;;;;;;;4844006;29;19928;-90
2022/01/30 16:55:42;;;;;;;;;;;;;;;;;;4857145;29;19935;-89
2022/01/30 16:58:12;;;;;;;;;;;;;;;;;;4857343;29;19984;-89
2022/01/30 17:00:40;;;;;;;;;;;;;;;;;;4857474;29;20420;-90
2022/01/30 17:03:07;;;;;;;;;;;;;;;;;;4841057;29;20397;-90
2022/01/30 17:05:37;;;;;;;;;;;;;;;;;;4842316;29;19928;-89
2022/01/30 17:08:04;;;;;;;;;;;;;;;;;;4840978;29;20381;-90
2022/01/30 17:10:38;;;;;;;;;;;;;;;;;;4856236;29;19924;-90
2022/01/30 17:13:05;;;;;;;;;;;;;;;;;;4855002;29;19942;-89
2022/01/30 17:15:37;;;;;;;;;;;;;;;;;;4842125;29;20413;-90
2022/01/30 17:18:09;;;;;;;;;;;;;;;;;;4858503;29;19927;-90
2022/01/30 17:20:37;;;;;;;;;;;;;;;;;;4851463;29;20302;-88
2022/01/30 17:23:18;;;;;;;;;;;;;;;;;;4851673;29;19928;-85
2022/01/30 17:25:48;;;;;;;;;;;;;;;;;;4868818;29;19928;-90
2022/01/30 17:28:15;;;;;;;;;;;;;;;;;;4863662;29;19928;-91
2022/01/30 17:30:47;;;;;;;;;;;;;;;;;;4863710;29;19931;-91
2022/01/30 17:33:13;;;;;;;;;;;;;;;;;;4861448;29;19928;-92
2022/01/30 17:35:54;;;;;;;;;;;;;;;;;;4850022;29;20022;-90
2022/01/30 17:38:26;;;;;;;;;;;;;;;;;;4863635;29;19963;-91
2022/01/30 17:40:53;;;;;;;;;;;;;;;;;;4859970;29;19984;-91
2022/01/30 17:43:23;;;;;;;;;;;;;;;;;;4860733;29;19935;-91
2022/01/30 17:45:49;;;;;;;;;;;;;;;;;;4856366;29;19972;-90
2022/01/30 17:48:20;;;;;;;;;;;;;;;;;;4854482;29;20457;-91
2022/01/30 17:50:49;;;;;;;;;;;;;;;;;;4857248;29;19924;-89
2022/01/30 17:53:16;;;;;;;;;;;;;;;;;;4856021;29;19928;-90
2022/01/30 17:55:43;;;;;;;;;;;;;;;;;;4858825;29;19928;-91
2022/01/30 17:58:10;;;;;;;;;;;;;;;;;;4839439;29;19928;-91
2022/01/30 18:00:36;;;;;;;;;;;;;;;;;;4855356;29;19930;-90
2022/01/30 18:03:03;;;;;;;;;;;;;;;;;;4839979;29;19928;-91
2022/01/30 18:05:30;;;;;;;;;;;;;;;;;;4852939;29;19931;-88
2022/01/30 18:07:57;;;;;;;;;;;;;;;;;;4856211;29;19985;-90
2022/01/30 18:10:24;;;;;;;;;;;;;;;;;;4855628;29;19928;-89
2022/01/30 18:12:51;;;;;;;;;;;;;;;;;;4857153;29;19928;-89
2022/01/30 18:15:17;;;;;;;;;;;;;;;;;;4839730;29;20398;-90
2022/01/30 18:17:46;;;;;;;;;;;;;;;;;;4857609;29;19928;-89
2022/01/30 18:21:38;;;;;;;;;;;;;;;;;;5025371;27;19929;-88
2022/01/30 18:25:57;;;;;;;19.90;5.40;;;;;;;;;;5029855;28;20461;-86
2022/01/30 18:28:25;;;;;;;22.45;6.15;;;;;;;;;;5011119;28;20057;-87
2022/01/30 18:30:52;;;;;;;18.90;3.53;;;;;;;;;;5014034;28;20815;-88
2022/01/30 18:33:21;;;;;;;12.20;3.47;;;;;;;;;;5007797;28;20046;-89
2022/01/30 18:35:50;;;;;;;15.75;3.40;;;;;;;;;;4985545;28;20058;-87
2022/01/30 18:43:30;;;;;;;20.23;7.38;;;;;;;;;;4978267;28;20051;-88
2022/01/30 18:45:57;;;;;;;13.60;4.75;;;;;;;;;;4980817;28;20113;-87
2022/01/30 18:48:24;;;;;;;19.63;5.00;;;;;;;;;;4982141;28;20054;-87
2022/01/30 18:50:50;;;;;;;17.67;6.38;;;;;;;;;;4984117;28;20058;-88
2022/01/30 18:53:19;;;;;;;20.60;5.05;;;;;;;;;;4985260;28;20050;-86
2022/01/30 18:55:46;;;;;;;19.05;5.20;;;;;;;;;;4987823;28;20086;-86
2022/01/30 18:58:13;;;;;;;16.35;4.70;;;;;;;;;;4968647;28;321769;-86
2022/01/30 19:00:40;;;;;;;17.85;4.63;;;;;;;;;;4995978;28;20104;-87
2022/01/30 19:03:07;;;;;;;19.33;5.68;;;;;;;;;;4983424;28;20061;-91
2022/01/30 19:05:34;;;;;;;23.08;6.10;;;;;;;;;;5002715;28;20133;-87
2022/01/30 19:08:00;;;;;;;18.88;5.50;;;;;;;;;;5006171;28;20477;-87
2022/01/30 19:10:27;;;;;;;16.38;4.97;;;;;;;;;;5006021;28;20522;-88
2022/01/30 19:12:54;;;;;;;20.65;5.60;;;;;;;;;;4986423;28;20046;-87
2022/01/30 19:15:21;;;;;;;23.15;6.68;;;;;;;;;;5002077;28;20073;-86
2022/01/30 19:17:48;;;;;;;21.77;5.97;;;;;;;;;;5007763;28;20046;-88
2022/01/30 19:20:14;;;;;;;33.03;12.40;;;;;;;;;;4983630;28;20533;-86
2022/01/30 19:22:42;;;;;;;27.67;8.57;;;;;;;;;;5003070;28;20069;-86
2022/01/30 19:25:09;;;;;;;25.03;10.67;;;;;;;;;;5007865;28;20186;-85
2022/01/30 19:27:36;;;;;;;29.13;8.13;;;;;;;;;;5006141;28;20602;-87
2022/01/30 19:30:04;;;;;;;23.08;7.88;;;;;;;;;;5013672;28;20414;-87
2022/01/30 19:32:31;;;;;;;17.30;6.47;;;;;;;;;;5000784;28;20054;-86
2022/01/30 19:34:58;;;;;;;22.65;6.60;;;;;;;;;;5000986;28;20050;-87
2022/01/30 19:37:25;;;;;;;21.88;7.72;;;;;;;;;;4987862;28;20195;-88
2022/01/30 19:39:52;;;;;;;42.78;23.98;;;;;;;;;;4995495;28;20062;-89
2022/01/30 19:42:20;;;;;;;34.05;18.80;;;;;;;;;;4990241;28;20839;-90
2022/01/30 19:44:52;;;;;;;21.40;7.90;;;;;;;;;;4991548;28;20537;-87
2022/01/30 19:47:24;;;;;;;25.25;7.28;;;;;;;;;;4987902;28;20458;-85
2022/01/30 19:49:56;;;;;;;16.23;7.00;;;;;;;;;;4987662;28;20049;-87
2022/01/30 19:52:26;;;;;;;40.10;16.63;;;;;;;;;;4981957;28;20046;-85
2022/01/30 19:54:52;;;;;;;28.38;14.75;;;;;;;;;;4994948;28;20089;-85
2022/01/30 19:57:19;;;;;;;30.00;17.00;;;;;;;;;;4974592;28;20083;-88
2022/01/30 19:59:46;;;;;;;19.17;9.48;;;;;;;;;;4966241;28;20101;-85
2022/01/30 20:02:13;;;;;;;20.92;10.25;;;;;;;;;;4969973;28;20050;-88
2022/01/30 20:04:40;;;;;;;16.08;7.60;;;;;;;;;;4988944;28;20054;-88
2022/01/30 20:07:12;;;;;;;12.00;6.88;;;;;;;;;;4975575;28;20060;-87
2022/01/30 20:09:39;;;;;;;150.52;72.10;;;;;;;;;;4996252;28;20116;-88
2022/01/30 20:12:08;;;;;;;35.55;16.95;;;;;;;;;;4992037;28;20508;-87
2022/01/30 20:14:36;;;;;;;40.50;22.08;;;;;;;;;;4996397;28;20121;-87
2022/01/30 20:17:05;;;;;;;35.22;15.23;;;;;;;;;;4995175;28;20038;-87
2022/01/30 20:19:32;;;;;;;23.05;13.43;;;;;;;;;;4996423;28;20050;-88
2022/01/30 20:22:00;;;;;;;32.75;17.85;;;;;;;;;;4979154;28;20050;-89
2022/01/30 20:24:28;;;;;;;22.52;15.32;;;;;;;;;;4993923;28;20042;-88
2022/01/30 20:26:55;;;;;;;;;;;;;;;;;;4998473;28;20112;-88
2022/01/30 20:29:22;;;;;;;10.38;6.30;;;;;;;;;;4998301;28;19980;-87
2022/01/30 20:31:49;;;;;;;15.70;10.43;;;;;;;;;;4996965;28;20058;-86
2022/01/30 20:34:16;;;;;;;12.32;8.18;;;;;;;;;;4975526;28;20054;-86
2022/01/30 20:36:43;;;;;;;7.78;5.80;;;;;;;;;;4997509;28;20462;-87
2022/01/30 20:39:11;;;;;;;9.43;3.42;;;;;;;;;;4977161;28;20507;-89
2022/01/30 20:41:38;;;;;;;7.40;4.85;;;;;;;;;;4991026;28;20491;-87
2022/01/30 20:44:05;;;;;;;7.80;5.00;;;;;;;;;;4974433;28;20042;-87
2022/01/30 20:46:34;;;;;;;8.48;4.88;;;;;;;;;;4991910;28;20078;-87
2022/01/30 20:49:01;;;;;;;11.10;6.60;;;;;;;;;;4987023;28;20057;-85
2022/01/30 20:51:28;;;;;;;11.98;5.30;;;;;;;;;;4992959;28;20562;-88
2022/01/30 20:53:55;;;;;;;16.27;6.22;;;;;;;;;;4988949;28;20054;-87
2022/01/30 20:56:23;;;;;;;14.07;10.18;;;;;;;;;;4964084;28;20046;-87
2022/01/30 20:58:50;;;;;;;16.13;7.10;;;;;;;;;;4987572;28;20076;-88
2022/01/30 21:01:18;;;;;;;14.23;8.07;;;;;;;;;;4987321;28;20047;-89
2022/01/30 21:03:46;;;;;;;14.82;7.45;;;;;;;;;;4970997;28;20057;-89
2022/01/30 21:06:13;;;;;;;16.50;6.80;;;;;;;;;;4987747;28;20070;-92
2022/01/30 21:08:41;;;;;;;13.57;7.55;;;;;;;;;;4975843;28;20050;-87
2022/01/30 21:11:14;;;;;;;21.73;8.25;;;;;;;;;;4987522;28;20050;-87
2022/01/30 21:13:42;;;;;;;;;;;;;;;;;;4984308;28;20060;-86
2022/01/30 21:16:09;;;;;;;25.33;10.23;;;;;;;;;;4990406;28;19922;-89
2022/01/30 21:18:35;;;;;;;14.02;7.60;;;;;;;;;;4966367;28;20081;-87
2022/01/30 21:21:02;;;;;;;17.17;6.95;;;;;;;;;;4973550;28;20056;-88
2022/01/30 21:23:29;;;;;;;15.15;9.02;;;;;;;;;;4990794;28;20082;-88
2022/01/30 21:25:55;;;;;;;15.48;8.55;;;;;;;;;;4972512;28;20046;-89
2022/01/30 21:28:22;;;;;;;20.60;9.43;;;;;;;;;;4999533;28;20073;-88
2022/01/30 21:30:50;;;;;;;19.40;8.23;;;;;;;;;;4972393;28;20149;-89
2022/01/30 21:33:19;;;;;;;22.98;9.05;;;;;;;;;;4988418;28;20053;-88
2022/01/30 21:35:50;;;;;;;21.00;9.32;;;;;;;;;;4990217;28;20050;-88
2022/01/30 21:38:18;;;;;;;18.30;10.02;;;;;;;;;;4989063;28;20112;-89
2022/01/30 21:40:45;;;;;;;19.33;9.52;;;;;;;;;;4982933;28;20058;-90
2022/01/30 21:43:15;;;;;;;19.45;10.05;;;;;;;;;;4979398;28;20050;-88
2022/01/30 21:45:42;;;;;;;17.23;9.75;;;;;;;;;;4987686;28;20537;-91
2022/01/30 21:48:09;;;;;;;15.60;8.50;;;;;;;;;;4970923;28;20053;-88
2022/01/30 21:50:36;;;;;;;11.32;6.72;;;;;;;;;;4971557;28;20618;-89
2022/01/30 21:53:03;;;;;;;10.40;5.80;;;;;;;;;;4969552;28;20046;-91
2022/01/30 21:55:30;;;;;;;8.77;4.25;;;;;;;;;;4988641;28;20097;-88
2022/01/30 21:58:03;;;;;;;9.15;3.83;;;;;;;;;;4967943;28;20894;-88
2022/01/30 22:00:30;;;;;;;6.93;3.35;;;;;;;;;;4988189;28;20565;-88
2022/01/30 22:02:57;;;;;;;6.82;3.13;;;;;;;;;;4985973;28;20046;-88
2022/01/30 22:05:26;;;;;;;5.75;2.83;;;;;;;;;;4971673;28;20053;-86
2022/01/30 22:07:53;;;;;;;6.95;2.50;;;;;;;;;;4981970;28;20113;-87
2022/01/30 22:10:20;;;;;;;5.88;1.80;;;;;;;;;;5004791;28;20054;-89
2022/01/30 22:12:52;;;;;;;4.30;1.60;;;;;;;;;;4995908;28;20046;-89
2022/01/30 22:15:22;;;;;;;2.55;1.20;;;;;;;;;;4974721;28;20054;-88
2022/01/30 22:17:50;;;;;;;3.40;0.90;;;;;;;;;;4986560;28;20050;-89
2022/01/30 22:20:18;;;;;;;3.20;0.60;;;;;;;;;;4973086;28;20046;-88
2022/01/30 22:22:46;;;;;;;3.65;0.70;;;;;;;;;;4998476;28;20053;-88
2022/01/30 22:25:15;;;;;;;4.68;1.02;;;;;;;;;;5002667;28;20053;-88
2022/01/30 22:27:42;;;;;;;5.80;1.10;;;;;;;;;;5007264;28;20079;-88
2022/01/30 22:30:14;;;;;;;5.72;1.10;;;;;;;;;;4975087;28;20502;-88
2022/01/30 22:32:43;;;;;;;4.30;1.40;;;;;;;;;;4991387;28;20422;-88
2022/01/30 22:35:10;;;;;;;;;;;;;;;;;;4997076;28;20057;-87
2022/01/30 22:37:38;;;;;;;11.13;1.70;;;;;;;;;;4978398;28;19983;-87
2022/01/30 22:40:07;;;;;;;9.40;2.58;;;;;;;;;;5003073;28;20049;-89
2022/01/30 22:42:34;;;;;;;;;;;;;;;;;;4991251;28;20046;-86
2022/01/30 22:45:00;;;;;;;7.22;1.75;;;;;;;;;;4975469;28;19922;-88
2022/01/30 22:47:27;;;;;;;8.60;2.30;;;;;;;;;;4985725;28;20112;-88
2022/01/30 22:49:54;;;;;;;10.98;2.30;;;;;;;;;;4997125;28;20081;-87
2022/01/30 22:52:20;;;;;;;7.72;2.05;;;;;;;;;;4994172;28;20050;-88
2022/01/30 22:54:47;;;;;;;6.90;1.60;;;;;;;;;;4976603;28;20050;-87
2022/01/30 22:57:14;;;;;;;4.72;1.35;;;;;;;;;;4993051;28;20108;-88
2022/01/30 22:59:40;;;;;;;6.10;1.00;;;;;;;;;;4977518;28;20105;-89
